sensor_id;sensor_type;location;lat;lon;timestamp;temperature;humidity
69225;DHT22;56333;51.306;17.056;2023-01-19T00:00:30;3.34;79.95
69225;DHT22;56333;51.306;17.056;2023-01-19T00:02:05;3.30;80.00
69225;DHT22;56333;51.306;17.056;2023-01-19T00:03:34;3.29;80.18
69225;DHT22;56333;51.306;17.056;2023-01-19T00:05:03;3.27;80.30
69225;DHT22;56333;51.306;17.056;2023-01-19T00:06:34;3.29;80.50
69225;DHT22;56333;51.306;17.056;2023-01-19T00:08:02;3.30;80.63
69225;DHT22;56333;51.306;17.056;2023-01-19T00:09:38;3.31;80.70
69225;DHT22;56333;51.306;17.056;2023-01-19T00:11:08;3.31;80.63
69225;DHT22;56333;51.306;17.056;2023-01-19T00:12:37;3.31;80.60
69225;DHT22;56333;51.306;17.056;2023-01-19T00:14:06;3.31;80.50
69225;DHT22;56333;51.306;17.056;2023-01-19T00:15:35;3.26;80.40
69225;DHT22;56333;51.306;17.056;2023-01-19T00:17:03;3.25;80.32
69225;DHT22;56333;51.306;17.056;2023-01-19T00:18:32;3.24;80.20
69225;DHT22;56333;51.306;17.056;2023-01-19T00:20:01;3.19;80.10
69225;DHT22;56333;51.306;17.056;2023-01-19T00:21:32;3.14;80.00
69225;DHT22;56333;51.306;17.056;2023-01-19T00:23:01;3.09;80.07
69225;DHT22;56333;51.306;17.056;2023-01-19T00:24:31;3.06;80.10
69225;DHT22;56333;51.306;17.056;2023-01-19T00:26:00;3.04;80.20
69225;DHT22;56333;51.306;17.056;2023-01-19T00:27:29;3.05;80.32
69225;DHT22;56333;51.306;17.056;2023-01-19T00:28:57;3.06;80.55
69225;DHT22;56333;51.306;17.056;2023-01-19T00:30:27;3.06;80.75
69225;DHT22;56333;51.306;17.056;2023-01-19T00:31:56;3.09;80.88
69225;DHT22;56333;51.306;17.056;2023-01-19T00:33:26;3.11;80.95
69225;DHT22;56333;51.306;17.056;2023-01-19T00:34:56;3.13;81.00
69225;DHT22;56333;51.306;17.056;2023-01-19T00:36:25;3.15;80.90
69225;DHT22;56333;51.306;17.056;2023-01-19T00:37:54;3.17;80.80
69225;DHT22;56333;51.306;17.056;2023-01-19T00:39:23;3.17;80.70
69225;DHT22;56333;51.306;17.056;2023-01-19T00:40:52;3.16;80.63
69225;DHT22;56333;51.306;17.056;2023-01-19T00:42:21;3.15;80.57
69225;DHT22;56333;51.306;17.056;2023-01-19T00:44:07;3.14;80.47
69225;DHT22;56333;51.306;17.056;2023-01-19T00:45:36;3.14;80.38
69225;DHT22;56333;51.306;17.056;2023-01-19T00:47:05;3.13;80.32
69225;DHT22;56333;51.306;17.056;2023-01-19T00:48:34;3.13;80.30
69225;DHT22;56333;51.306;17.056;2023-01-19T00:50:05;3.13;80.43
69225;DHT22;56333;51.306;17.056;2023-01-19T00:51:36;3.18;80.53
69225;DHT22;56333;51.306;17.056;2023-01-19T00:53:05;3.20;80.57
69225;DHT22;56333;51.306;17.056;2023-01-19T00:54:34;3.22;80.65
69225;DHT22;56333;51.306;17.056;2023-01-19T00:56:03;3.27;80.68
69225;DHT22;56333;51.306;17.056;2023-01-19T00:57:33;3.28;80.63
69225;DHT22;56333;51.306;17.056;2023-01-19T00:59:02;3.30;80.47
69225;DHT22;56333;51.306;17.056;2023-01-19T01:00:31;3.31;80.32
69225;DHT22;56333;51.306;17.056;2023-01-19T01:02:00;3.32;80.20
69225;DHT22;56333;51.306;17.056;2023-01-19T01:03:28;3.32;80.10
69225;DHT22;56333;51.306;17.056;2023-01-19T01:04:57;3.33;80.00
69225;DHT22;56333;51.306;17.056;2023-01-19T01:06:26;3.32;79.90
69225;DHT22;56333;51.306;17.056;2023-01-19T01:07:56;3.31;79.88
69225;DHT22;56333;51.306;17.056;2023-01-19T01:09:25;3.32;79.88
69225;DHT22;56333;51.306;17.056;2023-01-19T01:10:54;3.32;79.72
69225;DHT22;56333;51.306;17.056;2023-01-19T01:12:23;3.30;79.70
69225;DHT22;56333;51.306;17.056;2023-01-19T01:13:53;3.30;79.80
69225;DHT22;56333;51.306;17.056;2023-01-19T01:15:21;3.31;80.03
69225;DHT22;56333;51.306;17.056;2023-01-19T01:16:53;3.34;80.10
69225;DHT22;56333;51.306;17.056;2023-01-19T01:18:22;3.35;80.20
69225;DHT22;56333;51.306;17.056;2023-01-19T01:19:51;3.38;80.32
69225;DHT22;56333;51.306;17.056;2023-01-19T01:21:20;3.40;80.20
69225;DHT22;56333;51.306;17.056;2023-01-19T01:22:50;3.41;80.18
69225;DHT22;56333;51.306;17.056;2023-01-19T01:24:19;3.41;80.07
69225;DHT22;56333;51.306;17.056;2023-01-19T01:25:49;3.41;79.93
69225;DHT22;56333;51.306;17.056;2023-01-19T01:27:18;3.43;79.93
69225;DHT22;56333;51.306;17.056;2023-01-19T01:28:47;3.43;79.80
69225;DHT22;56333;51.306;17.056;2023-01-19T01:30:16;3.43;79.70
69225;DHT22;56333;51.306;17.056;2023-01-19T01:31:47;3.43;79.60
69225;DHT22;56333;51.306;17.056;2023-01-19T01:33:16;3.42;79.55
69225;DHT22;56333;51.306;17.056;2023-01-19T01:34:44;3.42;79.40
69225;DHT22;56333;51.306;17.056;2023-01-19T01:56:51;3.35;79.07
69225;DHT22;56333;51.306;17.056;2023-01-19T01:58:23;3.34;78.97
69225;DHT22;56333;51.306;17.056;2023-01-19T01:59:53;3.30;78.97
69225;DHT22;56333;51.306;17.056;2023-01-19T02:01:23;3.31;79.07
69225;DHT22;56333;51.306;17.056;2023-01-19T02:03:10;3.30;79.15
69225;DHT22;56333;51.306;17.056;2023-01-19T02:04:40;3.31;79.35
69225;DHT22;56333;51.306;17.056;2023-01-19T02:06:14;3.34;79.60
69225;DHT22;56333;51.306;17.056;2023-01-19T02:07:47;3.35;79.70
69225;DHT22;56333;51.306;17.056;2023-01-19T02:09:39;3.39;79.80
69225;DHT22;56333;51.306;17.056;2023-01-19T02:11:24;3.43;79.75
69225;DHT22;56333;51.306;17.056;2023-01-19T02:13:11;3.46;79.70
69225;DHT22;56333;51.306;17.056;2023-01-19T02:14:44;3.46;79.55
69225;DHT22;56333;51.306;17.056;2023-01-19T02:16:13;3.48;79.43
69225;DHT22;56333;51.306;17.056;2023-01-19T02:17:44;3.50;79.35
69225;DHT22;56333;51.306;17.056;2023-01-19T02:19:15;3.49;79.28
69225;DHT22;56333;51.306;17.056;2023-01-19T02:21:05;3.48;79.28
69225;DHT22;56333;51.306;17.056;2023-01-19T02:22:43;3.46;79.18
69225;DHT22;56333;51.306;17.056;2023-01-19T02:24:14;3.46;79.10
69225;DHT22;56333;51.306;17.056;2023-01-19T02:25:44;3.44;79.03
69225;DHT22;56333;51.306;17.056;2023-01-19T02:27:13;3.42;79.00
69225;DHT22;56333;51.306;17.056;2023-01-19T02:28:44;3.43;79.15
69225;DHT22;56333;51.306;17.056;2023-01-19T02:30:17;3.45;79.30
69225;DHT22;56333;51.306;17.056;2023-01-19T02:31:46;3.47;79.45
69225;DHT22;56333;51.306;17.056;2023-01-19T02:33:15;3.50;79.57
69225;DHT22;56333;51.306;17.056;2023-01-19T02:34:44;3.52;79.63
69225;DHT22;56333;51.306;17.056;2023-01-19T02:36:14;3.55;79.50
69225;DHT22;56333;51.306;17.056;2023-01-19T02:37:52;3.53;78.88
69225;DHT22;56333;51.306;17.056;2023-01-19T02:39:24;3.51;78.75
69225;DHT22;56333;51.306;17.056;2023-01-19T02:40:58;3.47;78.72
69225;DHT22;56333;51.306;17.056;2023-01-19T02:42:32;3.44;78.53
69225;DHT22;56333;51.306;17.056;2023-01-19T02:44:04;3.41;78.57
69225;DHT22;56333;51.306;17.056;2023-01-19T02:45:34;3.41;78.60
69225;DHT22;56333;51.306;17.056;2023-01-19T02:47:03;3.38;78.40
69225;DHT22;56333;51.306;17.056;2023-01-19T02:48:33;3.36;78.40
69225;DHT22;56333;51.306;17.056;2023-01-19T02:50:03;3.33;78.35
69225;DHT22;56333;51.306;17.056;2023-01-19T02:52:12;3.31;78.53
69225;DHT22;56333;51.306;17.056;2023-01-19T02:54:04;3.30;78.65
69225;DHT22;56333;51.306;17.056;2023-01-19T02:55:49;3.32;78.75
69225;DHT22;56333;51.306;17.056;2023-01-19T02:57:34;3.34;78.93
69225;DHT22;56333;51.306;17.056;2023-01-19T02:59:21;3.36;79.03
69225;DHT22;56333;51.306;17.056;2023-01-19T03:01:05;3.37;79.10
69225;DHT22;56333;51.306;17.056;2023-01-19T03:02:49;3.38;78.90
69225;DHT22;56333;51.306;17.056;2023-01-19T03:04:35;3.37;78.80
69225;DHT22;56333;51.306;17.056;2023-01-19T03:06:23;3.34;78.47
69225;DHT22;56333;51.306;17.056;2023-01-19T03:08:14;3.32;78.40
69225;DHT22;56333;51.306;17.056;2023-01-19T03:09:52;3.28;78.40
69225;DHT22;56333;51.306;17.056;2023-01-19T03:11:30;3.26;78.40
69225;DHT22;56333;51.306;17.056;2023-01-19T03:13:08;3.24;78.40
69225;DHT22;56333;51.306;17.056;2023-01-19T03:14:43;3.20;78.35
69225;DHT22;56333;51.306;17.056;2023-01-19T03:16:18;3.17;78.43
69225;DHT22;56333;51.306;17.056;2023-01-19T03:17:52;3.16;78.50
69225;DHT22;56333;51.306;17.056;2023-01-19T03:19:23;3.14;78.68
69225;DHT22;56333;51.306;17.056;2023-01-19T03:21:00;3.18;78.90
69225;DHT22;56333;51.306;17.056;2023-01-19T03:22:31;3.22;79.05
69225;DHT22;56333;51.306;17.056;2023-01-19T03:24:02;3.23;79.18
69225;DHT22;56333;51.306;17.056;2023-01-19T03:25:35;3.27;79.30
69225;DHT22;56333;51.306;17.056;2023-01-19T03:27:10;3.29;79.15
69225;DHT22;56333;51.306;17.056;2023-01-19T03:28:42;3.27;78.97
69225;DHT22;56333;51.306;17.056;2023-01-19T03:30:15;3.24;78.90
69225;DHT22;56333;51.306;17.056;2023-01-19T03:31:49;3.23;78.90
69225;DHT22;56333;51.306;17.056;2023-01-19T03:33:21;3.22;78.82
69225;DHT22;56333;51.306;17.056;2023-01-19T03:34:56;3.21;78.88
69225;DHT22;56333;51.306;17.056;2023-01-19T03:36:32;3.20;78.82
69225;DHT22;56333;51.306;17.056;2023-01-19T03:38:06;3.19;78.88
69225;DHT22;56333;51.306;17.056;2023-01-19T03:39:41;3.18;78.88
69225;DHT22;56333;51.306;17.056;2023-01-19T03:41:12;3.18;78.88
69225;DHT22;56333;51.306;17.056;2023-01-19T03:42:43;3.19;79.05
69225;DHT22;56333;51.306;17.056;2023-01-19T03:44:12;3.19;79.20
69225;DHT22;56333;51.306;17.056;2023-01-19T03:45:42;3.22;79.38
69225;DHT22;56333;51.306;17.056;2023-01-19T03:47:12;3.22;79.60
69225;DHT22;56333;51.306;17.056;2023-01-19T03:48:43;3.24;79.68
69225;DHT22;56333;51.306;17.056;2023-01-19T03:50:19;3.26;79.70
69225;DHT22;56333;51.306;17.056;2023-01-19T03:51:55;3.27;79.70
69225;DHT22;56333;51.306;17.056;2023-01-19T03:53:24;3.27;79.55
69225;DHT22;56333;51.306;17.056;2023-01-19T03:54:54;3.24;79.47
69225;DHT22;56333;51.306;17.056;2023-01-19T03:56:23;3.25;79.40
69225;DHT22;56333;51.306;17.056;2023-01-19T03:57:53;3.24;79.40
69225;DHT22;56333;51.306;17.056;2023-01-19T03:59:22;3.22;79.30
69225;DHT22;56333;51.306;17.056;2023-01-19T04:00:51;3.19;79.28
69225;DHT22;56333;51.306;17.056;2023-01-19T04:02:20;3.15;79.22
69225;DHT22;56333;51.306;17.056;2023-01-19T04:03:50;3.13;79.35
69225;DHT22;56333;51.306;17.056;2023-01-19T04:05:19;3.08;79.53
69225;DHT22;56333;51.306;17.056;2023-01-19T04:06:48;3.07;79.70
69225;DHT22;56333;51.306;17.056;2023-01-19T04:08:18;3.06;79.88
69225;DHT22;56333;51.306;17.056;2023-01-19T04:09:47;3.08;80.03
69225;DHT22;56333;51.306;17.056;2023-01-19T04:11:16;3.06;80.00
69225;DHT22;56333;51.306;17.056;2023-01-19T04:12:45;3.07;79.97
69225;DHT22;56333;51.306;17.056;2023-01-19T04:14:14;3.06;79.93
69225;DHT22;56333;51.306;17.056;2023-01-19T04:15:43;3.06;79.82
69225;DHT22;56333;51.306;17.056;2023-01-19T04:17:13;3.02;79.72
69225;DHT22;56333;51.306;17.056;2023-01-19T04:18:42;2.99;79.65
69225;DHT22;56333;51.306;17.056;2023-01-19T04:20:11;2.96;79.68
69225;DHT22;56333;51.306;17.056;2023-01-19T04:21:40;2.94;79.63
69225;DHT22;56333;51.306;17.056;2023-01-19T04:23:10;2.88;79.95
69225;DHT22;56333;51.306;17.056;2023-01-19T04:24:38;2.86;80.07
69225;DHT22;56333;51.306;17.056;2023-01-19T04:26:08;2.88;80.32
69225;DHT22;56333;51.306;17.056;2023-01-19T04:27:36;2.90;80.47
69225;DHT22;56333;51.306;17.056;2023-01-19T04:29:05;2.89;80.60
69225;DHT22;56333;51.306;17.056;2023-01-19T04:30:34;2.89;80.53
69225;DHT22;56333;51.306;17.056;2023-01-19T04:32:04;2.88;80.53
69225;DHT22;56333;51.306;17.056;2023-01-19T04:33:33;2.86;80.47
69225;DHT22;56333;51.306;17.056;2023-01-19T04:35:02;2.83;80.50
69225;DHT22;56333;51.306;17.056;2023-01-19T04:36:32;2.80;80.45
69225;DHT22;56333;51.306;17.056;2023-01-19T04:38:01;2.77;80.55
69225;DHT22;56333;51.306;17.056;2023-01-19T04:39:31;2.74;80.53
69225;DHT22;56333;51.306;17.056;2023-01-19T04:41:01;2.72;80.70
69225;DHT22;56333;51.306;17.056;2023-01-19T04:42:30;2.76;80.85
69225;DHT22;56333;51.306;17.056;2023-01-19T04:43:59;2.75;81.07
69225;DHT22;56333;51.306;17.056;2023-01-19T04:45:29;2.77;81.30
69225;DHT22;56333;51.306;17.056;2023-01-19T04:46:59;2.78;81.35
69225;DHT22;56333;51.306;17.056;2023-01-19T04:48:28;2.81;81.43
69225;DHT22;56333;51.306;17.056;2023-01-19T04:49:57;2.80;81.30
69225;DHT22;56333;51.306;17.056;2023-01-19T04:51:26;2.79;81.28
69225;DHT22;56333;51.306;17.056;2023-01-19T04:52:56;2.78;81.22
69225;DHT22;56333;51.306;17.056;2023-01-19T04:54:25;2.76;81.18
69225;DHT22;56333;51.306;17.056;2023-01-19T04:55:55;2.73;81.20
69225;DHT22;56333;51.306;17.056;2023-01-19T04:57:24;2.74;81.22
69225;DHT22;56333;51.306;17.056;2023-01-19T04:58:53;2.74;81.40
69225;DHT22;56333;51.306;17.056;2023-01-19T05:00:23;2.77;81.53
69225;DHT22;56333;51.306;17.056;2023-01-19T05:01:52;2.80;81.65
69225;DHT22;56333;51.306;17.056;2023-01-19T05:03:21;2.82;81.80
69225;DHT22;56333;51.306;17.056;2023-01-19T05:04:50;2.85;81.80
69225;DHT22;56333;51.306;17.056;2023-01-19T05:06:19;2.87;81.68
69225;DHT22;56333;51.306;17.056;2023-01-19T05:07:48;2.88;81.60
69225;DHT22;56333;51.306;17.056;2023-01-19T05:09:17;2.89;81.50
69225;DHT22;56333;51.306;17.056;2023-01-19T05:10:46;2.89;81.38
69225;DHT22;56333;51.306;17.056;2023-01-19T05:12:16;2.90;81.32
69225;DHT22;56333;51.306;17.056;2023-01-19T05:13:45;2.90;81.15
69225;DHT22;56333;51.306;17.056;2023-01-19T05:15:14;2.91;81.15
69225;DHT22;56333;51.306;17.056;2023-01-19T05:16:43;2.92;81.10
69225;DHT22;56333;51.306;17.056;2023-01-19T05:18:13;2.94;81.22
69225;DHT22;56333;51.306;17.056;2023-01-19T05:19:42;2.96;81.28
69225;DHT22;56333;51.306;17.056;2023-01-19T05:21:12;2.97;81.40
69225;DHT22;56333;51.306;17.056;2023-01-19T05:22:41;3.02;81.53
69225;DHT22;56333;51.306;17.056;2023-01-19T05:24:15;3.06;81.53
69225;DHT22;56333;51.306;17.056;2023-01-19T05:25:44;3.09;81.43
69225;DHT22;56333;51.306;17.056;2023-01-19T05:27:13;3.11;81.28
69225;DHT22;56333;51.306;17.056;2023-01-19T05:28:42;3.11;81.10
69225;DHT22;56333;51.306;17.056;2023-01-19T05:30:12;3.11;81.03
69225;DHT22;56333;51.306;17.056;2023-01-19T05:31:42;3.09;80.95
69225;DHT22;56333;51.306;17.056;2023-01-19T05:33:11;3.08;80.80
69225;DHT22;56333;51.306;17.056;2023-01-19T05:34:40;3.06;80.80
69225;DHT22;56333;51.306;17.056;2023-01-19T05:36:10;3.03;80.90
69225;DHT22;56333;51.306;17.056;2023-01-19T05:37:40;3.02;81.07
69225;DHT22;56333;51.306;17.056;2023-01-19T05:39:09;3.01;81.22
69225;DHT22;56333;51.306;17.056;2023-01-19T05:40:38;3.02;81.38
69225;DHT22;56333;51.306;17.056;2023-01-19T05:42:07;3.01;81.40
69225;DHT22;56333;51.306;17.056;2023-01-19T05:43:37;3.00;81.45
69225;DHT22;56333;51.306;17.056;2023-01-19T05:45:08;2.99;81.40
69225;DHT22;56333;51.306;17.056;2023-01-19T05:46:38;2.99;81.30
69225;DHT22;56333;51.306;17.056;2023-01-19T05:48:07;2.97;81.25
69225;DHT22;56333;51.306;17.056;2023-01-19T05:49:37;2.96;81.28
69225;DHT22;56333;51.306;17.056;2023-01-19T05:51:06;2.93;81.28
69225;DHT22;56333;51.306;17.056;2023-01-19T05:52:36;2.91;81.28
69225;DHT22;56333;51.306;17.056;2023-01-19T05:54:05;2.89;81.38
69225;DHT22;56333;51.306;17.056;2023-01-19T05:55:34;2.90;81.57
69225;DHT22;56333;51.306;17.056;2023-01-19T05:57:03;2.88;81.70
69225;DHT22;56333;51.306;17.056;2023-01-19T05:58:32;2.91;81.90
69225;DHT22;56333;51.306;17.056;2023-01-19T06:00:04;2.91;81.95
69225;DHT22;56333;51.306;17.056;2023-01-19T06:01:37;2.91;81.93
69225;DHT22;56333;51.306;17.056;2023-01-19T06:03:06;2.89;81.82
69225;DHT22;56333;51.306;17.056;2023-01-19T06:04:35;2.90;81.75
69225;DHT22;56333;51.306;17.056;2023-01-19T06:06:04;2.85;81.63
69225;DHT22;56333;51.306;17.056;2023-01-19T06:07:33;2.82;81.60
69225;DHT22;56333;51.306;17.056;2023-01-19T06:09:02;2.78;81.55
69225;DHT22;56333;51.306;17.056;2023-01-19T06:10:32;2.75;81.50
69225;DHT22;56333;51.306;17.056;2023-01-19T06:12:01;2.74;81.60
69225;DHT22;56333;51.306;17.056;2023-01-19T06:13:31;2.73;81.72
69225;DHT22;56333;51.306;17.056;2023-01-19T06:15:03;2.72;81.90
69225;DHT22;56333;51.306;17.056;2023-01-19T06:16:34;2.75;82.03
69225;DHT22;56333;51.306;17.056;2023-01-19T06:18:03;2.76;82.15
69225;DHT22;56333;51.306;17.056;2023-01-19T06:19:33;2.77;82.18
69225;DHT22;56333;51.306;17.056;2023-01-19T06:21:05;2.77;82.20
69225;DHT22;56333;51.306;17.056;2023-01-19T06:22:37;2.77;82.10
69225;DHT22;56333;51.306;17.056;2023-01-19T06:24:06;2.77;82.15
69225;DHT22;56333;51.306;17.056;2023-01-19T06:25:37;2.78;82.10
69225;DHT22;56333;51.306;17.056;2023-01-19T06:27:06;2.78;81.97
69225;DHT22;56333;51.306;17.056;2023-01-19T06:28:36;2.77;81.85
69225;DHT22;56333;51.306;17.056;2023-01-19T06:30:07;2.77;81.88
69225;DHT22;56333;51.306;17.056;2023-01-19T06:31:38;2.77;81.95
69225;DHT22;56333;51.306;17.056;2023-01-19T06:33:07;2.77;82.15
69225;DHT22;56333;51.306;17.056;2023-01-19T06:34:37;2.79;82.22
69225;DHT22;56333;51.306;17.056;2023-01-19T06:36:07;2.81;82.35
69225;DHT22;56333;51.306;17.056;2023-01-19T06:37:36;2.82;82.35
69225;DHT22;56333;51.306;17.056;2023-01-19T06:39:06;2.80;82.30
69225;DHT22;56333;51.306;17.056;2023-01-19T06:40:35;2.79;82.18
69225;DHT22;56333;51.306;17.056;2023-01-19T06:42:04;2.80;82.00
69225;DHT22;56333;51.306;17.056;2023-01-19T06:43:32;2.80;82.00
69225;DHT22;56333;51.306;17.056;2023-01-19T06:45:01;2.79;81.90
69225;DHT22;56333;51.306;17.056;2023-01-19T06:46:33;2.79;81.80
69225;DHT22;56333;51.306;17.056;2023-01-19T06:48:02;2.79;81.72
69225;DHT22;56333;51.306;17.056;2023-01-19T06:49:33;2.78;81.70
69225;DHT22;56333;51.306;17.056;2023-01-19T06:51:02;2.81;81.70
69225;DHT22;56333;51.306;17.056;2023-01-19T06:52:31;2.82;81.80
69225;DHT22;56333;51.306;17.056;2023-01-19T06:54:05;2.85;81.85
69225;DHT22;56333;51.306;17.056;2023-01-19T06:55:34;2.83;81.72
69225;DHT22;56333;51.306;17.056;2023-01-19T06:57:04;2.84;81.75
69225;DHT22;56333;51.306;17.056;2023-01-19T06:58:33;2.85;81.60
69225;DHT22;56333;51.306;17.056;2023-01-19T07:00:03;2.85;81.50
69225;DHT22;56333;51.306;17.056;2023-01-19T07:01:34;2.85;81.40
69225;DHT22;56333;51.306;17.056;2023-01-19T07:03:04;2.84;81.35
69225;DHT22;56333;51.306;17.056;2023-01-19T07:04:34;2.83;81.18
69225;DHT22;56333;51.306;17.056;2023-01-19T07:06:04;2.83;81.15
69225;DHT22;56333;51.306;17.056;2023-01-19T07:07:34;2.82;80.97
69225;DHT22;56333;51.306;17.056;2023-01-19T07:09:03;2.82;80.93
69225;DHT22;56333;51.306;17.056;2023-01-19T07:10:35;2.82;81.00
69225;DHT22;56333;51.306;17.056;2023-01-19T07:12:05;2.83;81.07
69225;DHT22;56333;51.306;17.056;2023-01-19T07:13:35;2.84;81.22
69225;DHT22;56333;51.306;17.056;2023-01-19T07:15:09;2.86;81.32
69225;DHT22;56333;51.306;17.056;2023-01-19T07:16:38;2.89;81.47
69225;DHT22;56333;51.306;17.056;2023-01-19T07:18:08;2.92;81.38
69225;DHT22;56333;51.306;17.056;2023-01-19T07:19:37;2.92;81.28
69225;DHT22;56333;51.306;17.056;2023-01-19T07:21:07;2.93;81.07
69225;DHT22;56333;51.306;17.056;2023-01-19T07:22:37;2.92;80.97
69225;DHT22;56333;51.306;17.056;2023-01-19T07:24:09;2.92;80.93
69225;DHT22;56333;51.306;17.056;2023-01-19T07:25:38;2.92;80.88
69225;DHT22;56333;51.306;17.056;2023-01-19T07:27:11;2.90;80.70
69225;DHT22;56333;51.306;17.056;2023-01-19T07:28:40;2.88;80.57
69225;DHT22;56333;51.306;17.056;2023-01-19T07:30:11;2.88;80.65
69225;DHT22;56333;51.306;17.056;2023-01-19T07:31:41;2.85;80.75
69225;DHT22;56333;51.306;17.056;2023-01-19T07:33:12;2.87;80.90
69225;DHT22;56333;51.306;17.056;2023-01-19T07:34:43;2.88;81.03
69225;DHT22;56333;51.306;17.056;2023-01-19T07:36:13;2.89;81.05
69225;DHT22;56333;51.306;17.056;2023-01-19T07:37:44;2.91;81.03
69225;DHT22;56333;51.306;17.056;2023-01-19T07:39:13;2.91;80.90
69225;DHT22;56333;51.306;17.056;2023-01-19T07:40:42;2.92;80.82
69225;DHT22;56333;51.306;17.056;2023-01-19T07:42:13;2.93;80.63
69225;DHT22;56333;51.306;17.056;2023-01-19T07:43:42;2.91;80.57
69225;DHT22;56333;51.306;17.056;2023-01-19T07:45:15;2.90;80.43
69225;DHT22;56333;51.306;17.056;2023-01-19T07:46:45;2.89;80.43
69225;DHT22;56333;51.306;17.056;2023-01-19T07:48:15;2.88;80.10
69225;DHT22;56333;51.306;17.056;2023-01-19T07:49:44;2.86;80.18
69225;DHT22;56333;51.306;17.056;2023-01-19T07:51:13;2.87;80.25
69225;DHT22;56333;51.306;17.056;2023-01-19T07:52:42;2.87;80.35
69225;DHT22;56333;51.306;17.056;2023-01-19T07:54:14;2.87;80.40
69225;DHT22;56333;51.306;17.056;2023-01-19T07:55:44;2.87;80.30
69225;DHT22;56333;51.306;17.056;2023-01-19T07:57:18;2.86;80.20
69225;DHT22;56333;51.306;17.056;2023-01-19T07:58:47;2.85;80.13
69225;DHT22;56333;51.306;17.056;2023-01-19T08:00:17;2.82;80.03
69225;DHT22;56333;51.306;17.056;2023-01-19T08:01:48;2.81;80.00
69225;DHT22;56333;51.306;17.056;2023-01-19T08:03:18;2.79;80.10
69225;DHT22;56333;51.306;17.056;2023-01-19T08:04:49;2.79;80.00
69225;DHT22;56333;51.306;17.056;2023-01-19T08:06:20;2.81;80.05
69225;DHT22;56333;51.306;17.056;2023-01-19T08:07:59;2.81;80.18
69225;DHT22;56333;51.306;17.056;2023-01-19T08:09:28;2.84;80.22
69225;DHT22;56333;51.306;17.056;2023-01-19T08:10:57;2.85;80.28
69225;DHT22;56333;51.306;17.056;2023-01-19T08:12:27;2.88;80.40
69225;DHT22;56333;51.306;17.056;2023-01-19T08:13:56;2.88;80.40
69225;DHT22;56333;51.306;17.056;2023-01-19T08:15:25;2.89;80.35
69225;DHT22;56333;51.306;17.056;2023-01-19T08:16:54;2.89;80.20
69225;DHT22;56333;51.306;17.056;2023-01-19T08:18:27;2.90;80.13
69225;DHT22;56333;51.306;17.056;2023-01-19T08:19:56;2.90;80.15
69225;DHT22;56333;51.306;17.056;2023-01-19T08:21:25;2.91;80.10
69225;DHT22;56333;51.306;17.056;2023-01-19T08:22:56;2.92;80.03
69225;DHT22;56333;51.306;17.056;2023-01-19T08:24:23;2.94;80.20
69225;DHT22;56333;51.306;17.056;2023-01-19T08:25:53;2.93;80.05
69225;DHT22;56333;51.306;17.056;2023-01-19T08:27:22;2.95;79.93
69225;DHT22;56333;51.306;17.056;2023-01-19T08:28:50;2.97;79.97
69225;DHT22;56333;51.306;17.056;2023-01-19T08:30:20;3.01;80.00
69225;DHT22;56333;51.306;17.056;2023-01-19T08:31:50;3.04;80.13
69225;DHT22;56333;51.306;17.056;2023-01-19T08:33:20;3.07;80.18
69225;DHT22;56333;51.306;17.056;2023-01-19T08:34:50;3.10;80.20
69225;DHT22;56333;51.306;17.056;2023-01-19T08:36:19;3.13;80.15
69225;DHT22;56333;51.306;17.056;2023-01-19T08:37:48;3.14;80.03
69225;DHT22;56333;51.306;17.056;2023-01-19T08:39:16;3.14;79.97
69225;DHT22;56333;51.306;17.056;2023-01-19T08:40:47;3.14;79.63
69225;DHT22;56333;51.306;17.056;2023-01-19T08:42:16;3.16;79.50
69225;DHT22;56333;51.306;17.056;2023-01-19T08:43:46;3.17;79.40
69225;DHT22;56333;51.306;17.056;2023-01-19T08:45:16;3.18;79.30
69225;DHT22;56333;51.306;17.056;2023-01-19T08:46:46;3.18;79.07
69225;DHT22;56333;51.306;17.056;2023-01-19T08:48:16;3.18;78.85
69225;DHT22;56333;51.306;17.056;2023-01-19T08:49:47;3.16;78.93
69225;DHT22;56333;51.306;17.056;2023-01-19T08:51:17;3.19;79.10
69225;DHT22;56333;51.306;17.056;2023-01-19T08:52:46;3.20;79.03
69225;DHT22;56333;51.306;17.056;2023-01-19T08:54:16;3.24;79.10
69225;DHT22;56333;51.306;17.056;2023-01-19T08:55:47;3.28;79.13
69225;DHT22;56333;51.306;17.056;2023-01-19T08:57:23;3.31;79.03
69225;DHT22;56333;51.306;17.056;2023-01-19T08:58:53;3.34;78.82
69225;DHT22;56333;51.306;17.056;2023-01-19T09:00:22;3.32;78.43
69225;DHT22;56333;51.306;17.056;2023-01-19T09:01:55;3.34;78.25
69225;DHT22;56333;51.306;17.056;2023-01-19T09:03:24;3.35;78.10
69225;DHT22;56333;51.306;17.056;2023-01-19T09:04:53;3.35;77.82
69225;DHT22;56333;51.306;17.056;2023-01-19T09:06:21;3.35;77.55
69225;DHT22;56333;51.306;17.056;2023-01-19T09:07:51;3.36;77.45
69225;DHT22;56333;51.306;17.056;2023-01-19T09:09:20;3.39;77.68
69225;DHT22;56333;51.306;17.056;2023-01-19T09:10:49;3.42;77.57
69225;DHT22;56333;51.306;17.056;2023-01-19T09:12:18;3.44;77.30
69225;DHT22;56333;51.306;17.056;2023-01-19T09:13:47;3.47;77.30
69225;DHT22;56333;51.306;17.056;2023-01-19T09:15:16;3.49;77.13
69225;DHT22;56333;51.306;17.056;2023-01-19T09:16:45;3.51;77.10
69225;DHT22;56333;51.306;17.056;2023-01-19T09:18:15;3.53;77.28
69225;DHT22;56333;51.306;17.056;2023-01-19T09:19:46;3.59;77.45
69225;DHT22;56333;51.306;17.056;2023-01-19T09:21:15;3.61;77.43
69225;DHT22;56333;51.306;17.056;2023-01-19T09:22:44;3.67;77.68
69225;DHT22;56333;51.306;17.056;2023-01-19T09:24:13;3.75;77.68
69225;DHT22;56333;51.306;17.056;2023-01-19T09:25:43;3.77;76.97
69225;DHT22;56333;51.306;17.056;2023-01-19T09:27:13;3.81;77.00
69225;DHT22;56333;51.306;17.056;2023-01-19T09:28:42;3.83;76.88
69225;DHT22;56333;51.306;17.056;2023-01-19T09:30:12;3.84;76.22
69225;DHT22;56333;51.306;17.056;2023-01-19T09:31:42;3.86;76.25
69225;DHT22;56333;51.306;17.056;2023-01-19T09:33:13;3.84;75.85
69225;DHT22;56333;51.306;17.056;2023-01-19T09:34:43;3.86;75.93
69225;DHT22;56333;51.306;17.056;2023-01-19T09:36:13;3.85;75.80
69225;DHT22;56333;51.306;17.056;2023-01-19T09:37:45;3.86;75.50
69225;DHT22;56333;51.306;17.056;2023-01-19T09:39:14;3.85;75.15
69225;DHT22;56333;51.306;17.056;2023-01-19T09:40:46;3.84;75.10
69225;DHT22;56333;51.306;17.056;2023-01-19T09:42:21;3.83;74.75
69225;DHT22;56333;51.306;17.056;2023-01-19T09:43:58;3.83;74.95
69225;DHT22;56333;51.306;17.056;2023-01-19T09:45:30;3.86;75.07
69225;DHT22;56333;51.306;17.056;2023-01-19T09:47:15;3.89;75.05
69225;DHT22;56333;51.306;17.056;2023-01-19T09:48:51;3.93;74.97
69225;DHT22;56333;51.306;17.056;2023-01-19T09:50:25;3.93;74.72
69225;DHT22;56333;51.306;17.056;2023-01-19T09:51:59;3.96;74.53
69225;DHT22;56333;51.306;17.056;2023-01-19T09:53:39;3.98;74.45
69225;DHT22;56333;51.306;17.056;2023-01-19T09:55:21;3.99;74.57